sensor_id;sensor_type;location;lat;lon;timestamp;temperature;humidity
83102;SHT31;72973;51.784;4.660;2024-01-07T00:00:16;3.78;73.49
83102;SHT31;72973;51.784;4.660;2024-01-07T00:02:43;3.69;74.05
83102;SHT31;72973;51.784;4.660;2024-01-07T00:05:10;3.69;74.30
83102;SHT31;72973;51.784;4.660;2024-01-07T00:07:38;3.70;74.25
83102;SHT31;72973;51.784;4.660;2024-01-07T00:10:04;3.75;74.32
83102;SHT31;72973;51.784;4.660;2024-01-07T00:12:31;3.75;74.69
83102;SHT31;72973;51.784;4.660;2024-01-07T00:14:58;3.80;74.27
83102;SHT31;72973;51.784;4.660;2024-01-07T00:17:25;3.89;73.98
83102;SHT31;72973;51.784;4.660;2024-01-07T00:19:51;3.94;74.16
83102;SHT31;72973;51.784;4.660;2024-01-07T00:22:18;3.96;74.48
83102;SHT31;72973;51.784;4.660;2024-01-07T00:24:45;3.87;74.25
83102;SHT31;72973;51.784;4.660;2024-01-07T00:27:12;3.79;74.41
83102;SHT31;72973;51.784;4.660;2024-01-07T00:29:40;3.72;74.57
83102;SHT31;72973;51.784;4.660;2024-01-07T00:32:06;3.66;73.82
83102;SHT31;72973;51.784;4.660;2024-01-07T00:34:33;3.56;73.76
83102;SHT31;72973;51.784;4.660;2024-01-07T00:37:00;3.55;74.35
83102;SHT31;72973;51.784;4.660;2024-01-07T00:39:27;3.55;73.84
83102;SHT31;72973;51.784;4.660;2024-01-07T00:41:54;3.54;73.67
83102;SHT31;72973;51.784;4.660;2024-01-07T00:44:21;3.52;73.94
83102;SHT31;72973;51.784;4.660;2024-01-07T00:46:49;3.52;74.22
83102;SHT31;72973;51.784;4.660;2024-01-07T00:49:15;3.51;74.36
83102;SHT31;72973;51.784;4.660;2024-01-07T00:51:42;3.42;73.79
83102;SHT31;72973;51.784;4.660;2024-01-07T00:54:10;3.45;74.20
83102;SHT31;72973;51.784;4.660;2024-01-07T00:56:37;3.52;74.64
83102;SHT31;72973;51.784;4.660;2024-01-07T00:59:04;3.52;74.18
83102;SHT31;72973;51.784;4.660;2024-01-07T01:01:31;3.55;73.92
83102;SHT31;72973;51.784;4.660;2024-01-07T01:03:58;3.58;73.60
83102;SHT31;72973;51.784;4.660;2024-01-07T01:06:24;3.52;74.29
83102;SHT31;72973;51.784;4.660;2024-01-07T01:08:52;3.46;74.24
83102;SHT31;72973;51.784;4.660;2024-01-07T01:11:18;3.46;74.52
83102;SHT31;72973;51.784;4.660;2024-01-07T01:13:46;3.46;74.52
83102;SHT31;72973;51.784;4.660;2024-01-07T01:16:12;3.34;74.11
83102;SHT31;72973;51.784;4.660;2024-01-07T01:18:39;3.34;75.06
83102;SHT31;72973;51.784;4.660;2024-01-07T01:21:07;3.36;74.83
83102;SHT31;72973;51.784;4.660;2024-01-07T01:23:34;3.38;74.98
83102;SHT31;72973;51.784;4.660;2024-01-07T01:26:01;3.28;74.87
83102;SHT31;72973;51.784;4.660;2024-01-07T01:28:29;3.35;75.19
83102;SHT31;72973;51.784;4.660;2024-01-07T01:30:55;3.36;74.95
83102;SHT31;72973;51.784;4.660;2024-01-07T01:33:22;3.38;75.37
83102;SHT31;72973;51.784;4.660;2024-01-07T01:35:49;3.36;75.41
83102;SHT31;72973;51.784;4.660;2024-01-07T01:38:16;3.35;75.35
83102;SHT31;72973;51.784;4.660;2024-01-07T01:40:53;3.36;74.93
83102;SHT31;72973;51.784;4.660;2024-01-07T01:43:27;3.31;75.50
83102;SHT31;72973;51.784;4.660;2024-01-07T01:45:55;3.28;76.16
83102;SHT31;72973;51.784;4.660;2024-01-07T01:48:24;3.28;76.52
83102;SHT31;72973;51.784;4.660;2024-01-07T01:50:52;3.18;76.18
83102;SHT31;72973;51.784;4.660;2024-01-07T01:53:20;3.15;76.89
83102;SHT31;72973;51.784;4.660;2024-01-07T01:55:46;3.21;76.45
83102;SHT31;72973;51.784;4.660;2024-01-07T01:58:13;3.25;76.64
83102;SHT31;72973;51.784;4.660;2024-01-07T02:00:40;3.30;77.20
83102;SHT31;72973;51.784;4.660;2024-01-07T02:03:06;3.31;76.68
83102;SHT31;72973;51.784;4.660;2024-01-07T02:05:33;3.35;76.38
83102;SHT31;72973;51.784;4.660;2024-01-07T02:07:59;3.38;76.04
83102;SHT31;72973;51.784;4.660;2024-01-07T02:10:27;3.34;76.13
83102;SHT31;72973;51.784;4.660;2024-01-07T02:12:57;3.32;76.95
83102;SHT31;72973;51.784;4.660;2024-01-07T02:15:23;3.27;76.70
83102;SHT31;72973;51.784;4.660;2024-01-07T02:17:50;3.21;77.34
83102;SHT31;72973;51.784;4.660;2024-01-07T02:20:16;3.27;77.35
83102;SHT31;72973;51.784;4.660;2024-01-07T02:22:43;3.31;77.22
83102;SHT31;72973;51.784;4.660;2024-01-07T02:25:09;3.31;77.58
83102;SHT31;72973;51.784;4.660;2024-01-07T02:27:36;3.30;77.37
83102;SHT31;72973;51.784;4.660;2024-01-07T02:30:03;3.21;76.97
83102;SHT31;72973;51.784;4.660;2024-01-07T02:32:30;3.21;77.67
83102;SHT31;72973;51.784;4.660;2024-01-07T02:35:02;3.15;76.97
83102;SHT31;72973;51.784;4.660;2024-01-07T02:37:28;3.14;77.57
83102;SHT31;72973;51.784;4.660;2024-01-07T02:39:54;3.18;77.63
83102;SHT31;72973;51.784;4.660;2024-01-07T02:42:21;3.22;77.90
83102;SHT31;72973;51.784;4.660;2024-01-07T02:44:47;3.25;77.36
83102;SHT31;72973;51.784;4.660;2024-01-07T02:47:14;3.27;77.60
83102;SHT31;72973;51.784;4.660;2024-01-07T02:49:40;3.17;77.27
83102;SHT31;72973;51.784;4.660;2024-01-07T02:52:07;3.13;77.71
83102;SHT31;72973;51.784;4.660;2024-01-07T02:54:33;3.14;77.71
83102;SHT31;72973;51.784;4.660;2024-01-07T02:57:00;3.17;77.52
83102;SHT31;72973;51.784;4.660;2024-01-07T02:59:26;3.14;77.24
83102;SHT31;72973;51.784;4.660;2024-01-07T03:01:52;3.18;77.22
83102;SHT31;72973;51.784;4.660;2024-01-07T03:04:19;3.20;77.14
83102;SHT31;72973;51.784;4.660;2024-01-07T03:06:45;3.20;76.88
83102;SHT31;72973;51.784;4.660;2024-01-07T03:09:12;3.10;77.23
83102;SHT31;72973;51.784;4.660;2024-01-07T03:11:39;3.21;77.53
83102;SHT31;72973;51.784;4.660;2024-01-07T03:14:06;3.32;76.77
83102;SHT31;72973;51.784;4.660;2024-01-07T03:16:33;3.35;76.55
83102;SHT31;72973;51.784;4.660;2024-01-07T03:18:59;3.32;76.43
83102;SHT31;72973;51.784;4.660;2024-01-07T03:21:26;3.24;76.76
83102;SHT31;72973;51.784;4.660;2024-01-07T03:23:52;3.22;76.93
83102;SHT31;72973;51.784;4.660;2024-01-07T03:26:20;3.25;77.38
83102;SHT31;72973;51.784;4.660;2024-01-07T03:28:47;3.34;76.86
83102;SHT31;72973;51.784;4.660;2024-01-07T03:31:15;3.18;77.34
83102;SHT31;72973;51.784;4.660;2024-01-07T03:33:43;3.17;77.37
83102;SHT31;72973;51.784;4.660;2024-01-07T03:36:14;3.08;77.26
83102;SHT31;72973;51.784;4.660;2024-01-07T03:38:41;3.10;77.54
83102;SHT31;72973;51.784;4.660;2024-01-07T03:41:08;3.04;77.57
83102;SHT31;72973;51.784;4.660;2024-01-07T03:43:35;3.04;77.89
83102;SHT31;72973;51.784;4.660;2024-01-07T03:46:01;2.97;77.87
83102;SHT31;72973;51.784;4.660;2024-01-07T03:48:28;2.97;78.31
83102;SHT31;72973;51.784;4.660;2024-01-07T03:50:54;3.11;78.39
83102;SHT31;72973;51.784;4.660;2024-01-07T03:53:20;3.15;77.89
83102;SHT31;72973;51.784;4.660;2024-01-07T03:55:47;3.17;78.10
83102;SHT31;72973;51.784;4.660;2024-01-07T03:58:13;3.24;78.16
83102;SHT31;72973;51.784;4.660;2024-01-07T04:00:40;3.22;77.76
83102;SHT31;72973;51.784;4.660;2024-01-07T04:03:06;3.10;78.32
83102;SHT31;72973;51.784;4.660;2024-01-07T04:05:33;3.01;78.54
83102;SHT31;72973;51.784;4.660;2024-01-07T04:08:01;3.04;78.79
83102;SHT31;72973;51.784;4.660;2024-01-07T04:10:28;3.07;78.88
83102;SHT31;72973;51.784;4.660;2024-01-07T04:12:55;3.08;78.63
83102;SHT31;72973;51.784;4.660;2024-01-07T04:15:22;3.08;78.30
83102;SHT31;72973;51.784;4.660;2024-01-07T04:17:49;3.07;78.77
83102;SHT31;72973;51.784;4.660;2024-01-07T04:20:16;3.13;78.62
83102;SHT31;72973;51.784;4.660;2024-01-07T04:22:42;3.24;78.67
83102;SHT31;72973;51.784;4.660;2024-01-07T04:25:08;3.27;78.30
83102;SHT31;72973;51.784;4.660;2024-01-07T04:27:37;3.22;78.63
83102;SHT31;72973;51.784;4.660;2024-01-07T04:30:05;3.20;78.52
83102;SHT31;72973;51.784;4.660;2024-01-07T04:32:32;3.08;79.22
83102;SHT31;72973;51.784;4.660;2024-01-07T04:34:59;3.04;79.08
83102;SHT31;72973;51.784;4.660;2024-01-07T04:37:25;2.99;79.02
83102;SHT31;72973;51.784;4.660;2024-01-07T04:39:52;3.03;79.13
83102;SHT31;72973;51.784;4.660;2024-01-07T04:42:18;3.07;79.08
83102;SHT31;72973;51.784;4.660;2024-01-07T04:44:45;3.08;78.55
83102;SHT31;72973;51.784;4.660;2024-01-07T04:47:28;3.07;78.75
83102;SHT31;72973;51.784;4.660;2024-01-07T04:49:55;3.00;78.51
83102;SHT31;72973;51.784;4.660;2024-01-07T04:52:23;2.99;78.70
83102;SHT31;72973;51.784;4.660;2024-01-07T04:54:54;3.00;78.33
83102;SHT31;72973;51.784;4.660;2024-01-07T04:57:21;3.03;78.34
83102;SHT31;72973;51.784;4.660;2024-01-07T04:59:49;3.07;78.19
83102;SHT31;72973;51.784;4.660;2024-01-07T05:02:16;3.07;77.92
83102;SHT31;72973;51.784;4.660;2024-01-07T05:04:43;3.03;78.02
83102;SHT31;72973;51.784;4.660;2024-01-07T05:07:09;3.00;78.62
83102;SHT31;72973;51.784;4.660;2024-01-07T05:09:36;3.10;78.39
83102;SHT31;72973;51.784;4.660;2024-01-07T05:12:03;3.21;78.04
83102;SHT31;72973;51.784;4.660;2024-01-07T05:14:29;3.22;77.14
83102;SHT31;72973;51.784;4.660;2024-01-07T05:16:55;3.22;77.54
83102;SHT31;72973;51.784;4.660;2024-01-07T05:19:22;3.20;77.57
83102;SHT31;72973;51.784;4.660;2024-01-07T05:21:49;3.18;77.61
83102;SHT31;72973;51.784;4.660;2024-01-07T05:24:15;3.10;78.06
83102;SHT31;72973;51.784;4.660;2024-01-07T05:26:43;3.08;78.32
83102;SHT31;72973;51.784;4.660;2024-01-07T05:29:10;3.07;78.53
83102;SHT31;72973;51.784;4.660;2024-01-07T05:31:39;3.07;78.30
83102;SHT31;72973;51.784;4.660;2024-01-07T05:34:05;3.08;78.38
83102;SHT31;72973;51.784;4.660;2024-01-07T05:36:32;3.01;78.45
83102;SHT31;72973;51.784;4.660;2024-01-07T05:38:58;2.96;78.66
83102;SHT31;72973;51.784;4.660;2024-01-07T05:41:25;2.93;79.07
83102;SHT31;72973;51.784;4.660;2024-01-07T05:43:51;2.87;79.25
83102;SHT31;72973;51.784;4.660;2024-01-07T05:46:18;2.97;79.40
83102;SHT31;72973;51.784;4.660;2024-01-07T05:48:47;3.01;78.90
83102;SHT31;72973;51.784;4.660;2024-01-07T05:51:15;3.00;78.93
83102;SHT31;72973;51.784;4.660;2024-01-07T05:53:42;3.10;78.95
83102;SHT31;72973;51.784;4.660;2024-01-07T05:56:09;3.15;78.61
83102;SHT31;72973;51.784;4.660;2024-01-07T05:58:36;3.08;78.96
83102;SHT31;72973;51.784;4.660;2024-01-07T06:01:03;3.15;78.98
83102;SHT31;72973;51.784;4.660;2024-01-07T06:03:29;3.11;78.38
83102;SHT31;72973;51.784;4.660;2024-01-07T06:05:57;3.13;78.32
83102;SHT31;72973;51.784;4.660;2024-01-07T06:08:24;3.05;78.30
83102;SHT31;72973;51.784;4.660;2024-01-07T06:10:50;2.97;78.46
83102;SHT31;72973;51.784;4.660;2024-01-07T06:13:16;2.94;78.76
83102;SHT31;72973;51.784;4.660;2024-01-07T06:15:43;2.96;77.85
83102;SHT31;72973;51.784;4.660;2024-01-07T06:18:09;2.94;78.42
83102;SHT31;72973;51.784;4.660;2024-01-07T06:20:36;3.00;77.76
83102;SHT31;72973;51.784;4.660;2024-01-07T06:23:03;3.00;77.56
83102;SHT31;72973;51.784;4.660;2024-01-07T06:25:30;3.01;77.29
83102;SHT31;72973;51.784;4.660;2024-01-07T06:27:56;3.00;77.14
83102;SHT31;72973;51.784;4.660;2024-01-07T06:30:23;2.97;77.33
83102;SHT31;72973;51.784;4.660;2024-01-07T06:32:49;2.99;77.01
83102;SHT31;72973;51.784;4.660;2024-01-07T06:35:16;3.00;77.36
83102;SHT31;72973;51.784;4.660;2024-01-07T06:37:42;3.05;77.15
83102;SHT31;72973;51.784;4.660;2024-01-07T06:40:09;3.14;77.12
83102;SHT31;72973;51.784;4.660;2024-01-07T06:42:37;3.05;76.65
83102;SHT31;72973;51.784;4.660;2024-01-07T06:45:04;3.07;77.21
83102;SHT31;72973;51.784;4.660;2024-01-07T06:47:31;3.10;76.60
83102;SHT31;72973;51.784;4.660;2024-01-07T06:49:57;2.97;75.86
83102;SHT31;72973;51.784;4.660;2024-01-07T06:52:24;2.90;76.46
83102;SHT31;72973;51.784;4.660;2024-01-07T06:54:51;3.00;76.15
83102;SHT31;72973;51.784;4.660;2024-01-07T06:57:17;3.01;76.02
83102;SHT31;72973;51.784;4.660;2024-01-07T06:59:44;3.04;75.79
83102;SHT31;72973;51.784;4.660;2024-01-07T07:02:11;3.10;76.30
83102;SHT31;72973;51.784;4.660;2024-01-07T07:04:38;3.11;76.01
83102;SHT31;72973;51.784;4.660;2024-01-07T07:07:04;3.05;75.80
83102;SHT31;72973;51.784;4.660;2024-01-07T07:09:31;3.14;75.87
83102;SHT31;72973;51.784;4.660;2024-01-07T07:11:57;3.24;75.92
83102;SHT31;72973;51.784;4.660;2024-01-07T07:14:24;3.17;75.04
83102;SHT31;72973;51.784;4.660;2024-01-07T07:16:50;3.04;75.10
83102;SHT31;72973;51.784;4.660;2024-01-07T07:19:16;3.07;75.90
83102;SHT31;72973;51.784;4.660;2024-01-07T07:21:43;3.10;75.41
83102;SHT31;72973;51.784;4.660;2024-01-07T07:24:10;3.11;75.62
83102;SHT31;72973;51.784;4.660;2024-01-07T07:26:37;3.13;75.00
83102;SHT31;72973;51.784;4.660;2024-01-07T07:29:09;3.04;75.32
83102;SHT31;72973;51.784;4.660;2024-01-07T07:31:36;3.01;75.25
83102;SHT31;72973;51.784;4.660;2024-01-07T07:34:03;3.11;75.39
83102;SHT31;72973;51.784;4.660;2024-01-07T07:36:30;3.08;75.23
83102;SHT31;72973;51.784;4.660;2024-01-07T07:38:57;3.03;76.22
83102;SHT31;72973;51.784;4.660;2024-01-07T07:41:23;3.00;75.85
83102;SHT31;72973;51.784;4.660;2024-01-07T07:43:50;3.04;76.17
83102;SHT31;72973;51.784;4.660;2024-01-07T07:46:16;3.03;76.28
83102;SHT31;72973;51.784;4.660;2024-01-07T07:48:42;2.93;76.39
83102;SHT31;72973;51.784;4.660;2024-01-07T07:51:09;2.83;76.84
83102;SHT31;72973;51.784;4.660;2024-01-07T07:53:38;2.87;77.07
83102;SHT31;72973;51.784;4.660;2024-01-07T07:56:08;3.00;76.78
83102;SHT31;72973;51.784;4.660;2024-01-07T07:58:34;2.99;76.48
83102;SHT31;72973;51.784;4.660;2024-01-07T08:01:01;3.03;76.51
83102;SHT31;72973;51.784;4.660;2024-01-07T08:03:28;3.10;75.42
83102;SHT31;72973;51.784;4.660;2024-01-07T08:05:54;3.04;75.34
83102;SHT31;72973;51.784;4.660;2024-01-07T08:08:20;2.94;75.78
83102;SHT31;72973;51.784;4.660;2024-01-07T08:10:47;2.99;75.36
83102;SHT31;72973;51.784;4.660;2024-01-07T08:13:14;3.03;75.29
83102;SHT31;72973;51.784;4.660;2024-01-07T08:15:40;3.07;75.47
83102;SHT31;72973;51.784;4.660;2024-01-07T08:18:06;3.04;75.72
83102;SHT31;72973;51.784;4.660;2024-01-07T08:20:33;2.96;75.89
83102;SHT31;72973;51.784;4.660;2024-01-07T08:23:00;2.97;76.03
83102;SHT31;72973;51.784;4.660;2024-01-07T08:25:26;3.00;76.01
83102;SHT31;72973;51.784;4.660;2024-01-07T08:27:53;2.96;75.80
83102;SHT31;72973;51.784;4.660;2024-01-07T08:30:19;2.92;75.91
83102;SHT31;72973;51.784;4.660;2024-01-07T08:32:46;2.93;75.93
83102;SHT31;72973;51.784;4.660;2024-01-07T08:35:16;2.94;75.77
83102;SHT31;72973;51.784;4.660;2024-01-07T08:37:42;2.89;76.09
83102;SHT31;72973;51.784;4.660;2024-01-07T08:40:09;2.92;76.11
83102;SHT31;72973;51.784;4.660;2024-01-07T08:42:36;2.99;75.87
83102;SHT31;72973;51.784;4.660;2024-01-07T08:45:03;3.00;75.53
83102;SHT31;72973;51.784;4.660;2024-01-07T08:47:30;2.89;75.76
83102;SHT31;72973;51.784;4.660;2024-01-07T08:49:57;2.87;75.97
83102;SHT31;72973;51.784;4.660;2024-01-07T08:52:24;2.92;76.20
83102;SHT31;72973;51.784;4.660;2024-01-07T08:54:50;2.90;75.75
83102;SHT31;72973;51.784;4.660;2024-01-07T08:57:17;2.99;76.07
83102;SHT31;72973;51.784;4.660;2024-01-07T08:59:43;3.01;75.22
83102;SHT31;72973;51.784;4.660;2024-01-07T09:02:10;2.94;75.06
83102;SHT31;72973;51.784;4.660;2024-01-07T09:04:36;2.83;75.14
83102;SHT31;72973;51.784;4.660;2024-01-07T09:07:03;2.90;74.95
83102;SHT31;72973;51.784;4.660;2024-01-07T09:09:29;2.79;74.99
83102;SHT31;72973;51.784;4.660;2024-01-07T09:11:56;2.77;74.61
83102;SHT31;72973;51.784;4.660;2024-01-07T09:14:23;2.76;74.98
83102;SHT31;72973;51.784;4.660;2024-01-07T09:16:51;2.84;75.30
83102;SHT31;72973;51.784;4.660;2024-01-07T09:19:17;2.92;74.81
83102;SHT31;72973;51.784;4.660;2024-01-07T09:21:44;3.00;74.41
83102;SHT31;72973;51.784;4.660;2024-01-07T09:24:10;3.10;74.69
83102;SHT31;72973;51.784;4.660;2024-01-07T09:26:37;3.22;74.88
83102;SHT31;72973;51.784;4.660;2024-01-07T09:29:03;3.36;73.72
83102;SHT31;72973;51.784;4.660;2024-01-07T09:31:30;3.24;73.64
83102;SHT31;72973;51.784;4.660;2024-01-07T09:33:56;3.18;73.95
83102;SHT31;72973;51.784;4.660;2024-01-07T09:36:23;3.14;74.24
83102;SHT31;72973;51.784;4.660;2024-01-07T09:38:49;3.07;74.13
83102;SHT31;72973;51.784;4.660;2024-01-07T09:41:16;3.00;74.35
83102;SHT31;72973;51.784;4.660;2024-01-07T09:43:42;3.10;74.46
83102;SHT31;72973;51.784;4.660;2024-01-07T09:46:09;3.10;73.95
83102;SHT31;72973;51.784;4.660;2024-01-07T09:48:35;3.01;73.77
83102;SHT31;72973;51.784;4.660;2024-01-07T09:51:04;2.99;74.18
83102;SHT31;72973;51.784;4.660;2024-01-07T09:53:35;2.93;74.10
83102;SHT31;72973;51.784;4.660;2024-01-07T09:58:41;2.94;74.63
83102;SHT31;72973;51.784;4.660;2024-01-07T10:01:10;3.04;73.36
83102;SHT31;72973;51.784;4.660;2024-01-07T10:03:36;3.11;73.39
83102;SHT31;72973;51.784;4.660;2024-01-07T10:06:03;3.20;73.00
83102;SHT31;72973;51.784;4.660;2024-01-07T10:08:30;3.21;72.72
83102;SHT31;72973;51.784;4.660;2024-01-07T10:10:57;3.14;73.31
83102;SHT31;72973;51.784;4.660;2024-01-07T10:13:24;2.99;73.25
83102;SHT31;72973;51.784;4.660;2024-01-07T10:15:50;2.99;72.83
83102;SHT31;72973;51.784;4.660;2024-01-07T10:18:18;2.94;73.05
83102;SHT31;72973;51.784;4.660;2024-01-07T10:20:45;2.89;73.30
83102;SHT31;72973;51.784;4.660;2024-01-07T10:23:11;2.89;73.47
83102;SHT31;72973;51.784;4.660;2024-01-07T10:25:38;2.92;73.31
83102;SHT31;72973;51.784;4.660;2024-01-07T10:28:06;3.01;73.00
83102;SHT31;72973;51.784;4.660;2024-01-07T10:30:32;2.99;73.21
83102;SHT31;72973;51.784;4.660;2024-01-07T10:32:59;3.04;73.14
83102;SHT31;72973;51.784;4.660;2024-01-07T10:35:36;3.14;72.41
83102;SHT31;72973;51.784;4.660;2024-01-07T10:38:03;3.13;72.80
83102;SHT31;72973;51.784;4.660;2024-01-07T10:40:31;3.20;73.48
83102;SHT31;72973;51.784;4.660;2024-01-07T10:42:59;3.05;73.50
83102;SHT31;72973;51.784;4.660;2024-01-07T10:45:26;2.90;73.51
83102;SHT31;72973;51.784;4.660;2024-01-07T10:47:55;2.96;74.81
83102;SHT31;72973;51.784;4.660;2024-01-07T10:50:26;2.99;74.60
83102;SHT31;72973;51.784;4.660;2024-01-07T10:52:59;2.96;74.03
83102;SHT31;72973;51.784;4.660;2024-01-07T10:55:34;2.93;74.04
83102;SHT31;72973;51.784;4.660;2024-01-07T10:58:03;2.84;74.36
83102;SHT31;72973;51.784;4.660;2024-01-07T11:00:30;3.00;75.08
83102;SHT31;72973;51.784;4.660;2024-01-07T11:03:27;3.07;73.79
83102;SHT31;72973;51.784;4.660;2024-01-07T11:06:09;2.94;74.16
83102;SHT31;72973;51.784;4.660;2024-01-07T11:08:54;2.80;73.81
83102;SHT31;72973;51.784;4.660;2024-01-07T11:11:26;2.83;73.38
83102;SHT31;72973;51.784;4.660;2024-01-07T11:13:56;2.75;73.55
83102;SHT31;72973;51.784;4.660;2024-01-07T11:16:42;2.72;73.55
83102;SHT31;72973;51.784;4.660;2024-01-07T11:19:08;2.73;73.84
83102;SHT31;72973;51.784;4.660;2024-01-07T11:21:35;2.89;73.75
83102;SHT31;72973;51.784;4.660;2024-01-07T11:24:02;3.11;73.56
83102;SHT31;72973;51.784;4.660;2024-01-07T11:26:29;3.07;72.74
83102;SHT31;72973;51.784;4.660;2024-01-07T11:28:57;2.99;74.01
83102;SHT31;72973;51.784;4.660;2024-01-07T11:34:05;3.21;73.93
83102;SHT31;72973;51.784;4.660;2024-01-07T11:36:35;3.22;73.01
83102;SHT31;72973;51.784;4.660;2024-01-07T11:39:06;3.01;72.25
83102;SHT31;72973;51.784;4.660;2024-01-07T11:41:35;2.99;73.48
83102;SHT31;72973;51.784;4.660;2024-01-07T11:44:02;2.97;72.73
83102;SHT31;72973;51.784;4.660;2024-01-07T11:46:30;2.99;72.24
83102;SHT31;72973;51.784;4.660;2024-01-07T11:48:59;2.97;71.65
83102;SHT31;72973;51.784;4.660;2024-01-07T11:51:26;3.04;72.54
83102;SHT31;72973;51.784;4.660;2024-01-07T11:53:54;3.05;71.12
83102;SHT31;72973;51.784;4.660;2024-01-07T11:56:20;3.00;71.08
83102;SHT31;72973;51.784;4.660;2024-01-07T11:58:47;2.92;71.53
83102;SHT31;72973;51.784;4.660;2024-01-07T12:01:18;2.97;70.94
83102;SHT31;72973;51.784;4.660;2024-01-07T12:03:45;2.84;70.34
83102;SHT31;72973;51.784;4.660;2024-01-07T12:06:12;2.92;70.25
83102;SHT31;72973;51.784;4.660;2024-01-07T12:08:42;2.92;69.47
83102;SHT31;72973;51.784;4.660;2024-01-07T12:11:11;2.89;70.21
83102;SHT31;72973;51.784;4.660;2024-01-07T12:13:38;2.86;70.81
83102;SHT31;72973;51.784;4.660;2024-01-07T12:16:06;2.73;69.99
83102;SHT31;72973;51.784;4.660;2024-01-07T12:18:36;2.73;69.40
83102;SHT31;72973;51.784;4.660;2024-01-07T12:21:03;2.73;69.55
83102;SHT31;72973;51.784;4.660;2024-01-07T12:23:34;2.67;68.76
83102;SHT31;72973;51.784;4.660;2024-01-07T12:26:10;2.72;69.24
83102;SHT31;72973;51.784;4.660;2024-01-07T12:28:37;2.76;69.65
83102;SHT31;72973;51.784;4.660;2024-01-07T12:31:05;2.82;69.66
83102;SHT31;72973;51.784;4.660;2024-01-07T12:33:32;2.89;69.67
83102;SHT31;72973;51.784;4.660;2024-01-07T12:35:59;3.00;69.63
83102;SHT31;72973;51.784;4.660;2024-01-07T12:38:29;3.04;68.62
83102;SHT31;72973;51.784;4.660;2024-01-07T12:40:56;3.17;68.89
83102;SHT31;72973;51.784;4.660;2024-01-07T12:43:23;3.35;69.01
83102;SHT31;72973;51.784;4.660;2024-01-07T12:45:50;3.35;68.58
83102;SHT31;72973;51.784;4.660;2024-01-07T12:48:17;3.21;68.00
83102;SHT31;72973;51.784;4.660;2024-01-07T12:50:44;3.11;68.02
83102;SHT31;72973;51.784;4.660;2024-01-07T12:53:10;3.01;68.09
83102;SHT31;72973;51.784;4.660;2024-01-07T12:55:37;2.89;68.24
83102;SHT31;72973;51.784;4.660;2024-01-07T12:58:04;2.89;68.62
83102;SHT31;72973;51.784;4.660;2024-01-07T13:00:30;3.13;68.77
83102;SHT31;72973;51.784;4.660;2024-01-07T13:02:57;3.10;67.04
83102;SHT31;72973;51.784;4.660;2024-01-07T13:05:24;3.17;66.63
83102;SHT31;72973;51.784;4.660;2024-01-07T13:07:50;3.27;67.09
83102;SHT31;72973;51.784;4.660;2024-01-07T13:10:17;3.28;66.99
83102;SHT31;72973;51.784;4.660;2024-01-07T13:12:43;3.30;66.09
83102;SHT31;72973;51.784;4.660;2024-01-07T13:15:11;3.35;66.29
83102;SHT31;72973;51.784;4.660;2024-01-07T13:17:37;3.35;65.92
83102;SHT31;72973;51.784;4.660;2024-01-07T13:20:04;3.42;65.81
83102;SHT31;72973;51.784;4.660;2024-01-07T13:22:32;3.48;65.68
83102;SHT31;72973;51.784;4.660;2024-01-07T13:25:00;3.41;65.11
83102;SHT31;72973;51.784;4.660;2024-01-07T13:27:26;3.32;65.61
83102;SHT31;72973;51.784;4.660;2024-01-07T13:29:53;3.14;65.37
83102;SHT31;72973;51.784;4.660;2024-01-07T13:32:19;3.14;65.63
83102;SHT31;72973;51.784;4.660;2024-01-07T13:34:47;3.11;65.84
83102;SHT31;72973;51.784;4.660;2024-01-07T13:37:14;3.07;66.35
83102;SHT31;72973;51.784;4.660;2024-01-07T13:39:40;3.01;66.19
83102;SHT31;72973;51.784;4.660;2024-01-07T13:42:07;2.86;66.22
83102;SHT31;72973;51.784;4.660;2024-01-07T13:44:34;2.77;66.69
83102;SHT31;72973;51.784;4.660;2024-01-07T13:47:01;2.71;66.96
83102;SHT31;72973;51.784;4.660;2024-01-07T13:49:28;2.66;66.66
83102;SHT31;72973;51.784;4.660;2024-01-07T13:51:54;2.59;66.45
83102;SHT31;72973;51.784;4.660;2024-01-07T13:54:21;2.57;67.20
83102;SHT31;72973;51.784;4.660;2024-01-07T13:56:47;2.65;67.72
83102;SHT31;72973;51.784;4.660;2024-01-07T13:59:14;2.65;67.00
83102;SHT31;72973;51.784;4.660;2024-01-07T14:01:43;2.56;67.61
83102;SHT31;72973;51.784;4.660;2024-01-07T14:04:11;2.55;67.29
83102;SHT31;72973;51.784;4.660;2024-01-07T14:06:37;2.55;67.40
83102;SHT31;72973;51.784;4.660;2024-01-07T14:09:03;2.55;67.19
83102;SHT31;72973;51.784;4.660;2024-01-07T14:11:32;2.49;66.90
83102;SHT31;72973;51.784;4.660;2024-01-07T14:13:59;2.45;66.53
83102;SHT31;72973;51.784;4.660;2024-01-07T14:16:25;2.38;66.41
83102;SHT31;72973;51.784;4.660;2024-01-07T14:18:52;2.42;66.08
83102;SHT31;72973;51.784;4.660;2024-01-07T14:21:18;2.42;66.38
83102;SHT31;72973;51.784;4.660;2024-01-07T14:23:45;2.42;66.90
83102;SHT31;72973;51.784;4.660;2024-01-07T14:26:12;2.46;66.99
83102;SHT31;72973;51.784;4.660;2024-01-07T14:28:38;2.46;67.34
83102;SHT31;72973;51.784;4.660;2024-01-07T14:31:04;2.32;67.53
83102;SHT31;72973;51.784;4.660;2024-01-07T14:33:31;2.32;68.37
83102;SHT31;72973;51.784;4.660;2024-01-07T14:35:57;2.28;68.00
83102;SHT31;72973;51.784;4.660;2024-01-07T14:38:24;2.14;68.28
83102;SHT31;72973;51.784;4.660;2024-01-07T14:40:52;2.08;67.96
83102;SHT31;72973;51.784;4.660;2024-01-07T14:43:19;2.07;67.94
83102;SHT31;72973;51.784;4.660;2024-01-07T14:45:46;2.08;67.75
83102;SHT31;72973;51.784;4.660;2024-01-07T14:48:13;2.04;67.13
83102;SHT31;72973;51.784;4.660;2024-01-07T14:50:40;1.97;67.21
83102;SHT31;72973;51.784;4.660;2024-01-07T14:53:07;2.00;66.98
83102;SHT31;72973;51.784;4.660;2024-01-07T14:55:33;2.01;67.75
83102;SHT31;72973;51.784;4.660;2024-01-07T14:58:00;2.07;67.18
83102;SHT31;72973;51.784;4.660;2024-01-07T15:00:27;2.06;67.18
83102;SHT31;72973;51.784;4.660;2024-01-07T15:02:54;1.97;66.93
83102;SHT31;72973;51.784;4.660;2024-01-07T15:05:20;1.96;67.34
83102;SHT31;72973;51.784;4.660;2024-01-07T15:07:47;1.93;67.33
83102;SHT31;72973;51.784;4.660;2024-01-07T15:10:17;1.96;66.86
83102;SHT31;72973;51.784;4.660;2024-01-07T15:12:46;1.90;66.74
83102;SHT31;72973;51.784;4.660;2024-01-07T15:15:15;1.87;66.51
83102;SHT31;72973;51.784;4.660;2024-01-07T15:17:42;1.81;66.37
83102;SHT31;72973;51.784;4.660;2024-01-07T15:20:09;1.81;66.94
83102;SHT31;72973;51.784;4.660;2024-01-07T15:22:36;1.77;66.91
83102;SHT31;72973;51.784;4.660;2024-01-07T15:25:02;1.77;66.94
83102;SHT31;72973;51.784;4.660;2024-01-07T15:27:29;1.71;66.02
83102;SHT31;72973;51.784;4.660;2024-01-07T15:29:56;1.70;66.01
83102;SHT31;72973;51.784;4.660;2024-01-07T15:32:23;1.64;66.36
83102;SHT31;72973;51.784;4.660;2024-01-07T15:34:50;1.70;66.32
83102;SHT31;72973;51.784;4.660;2024-01-07T15:37:16;1.69;66.37
83102;SHT31;72973;51.784;4.660;2024-01-07T15:39:43;1.59;66.31
83102;SHT31;72973;51.784;4.660;2024-01-07T15:42:10;1.62;66.78
83102;SHT31;72973;51.784;4.660;2024-01-07T15:44:36;1.59;66.05
83102;SHT31;72973;51.784;4.660;2024-01-07T15:47:04;1.58;66.85
83102;SHT31;72973;51.784;4.660;2024-01-07T15:49:31;1.58;66.76